sensor_id;sensor_type;location;lat;lon;timestamp;temperature;humidity
22769;DHT22;13001;51.968;5.918;2023-09-19T00:00:43;17.10;98.80
22769;DHT22;13001;51.968;5.918;2023-09-19T00:03:13;17.10;98.90
22769;DHT22;13001;51.968;5.918;2023-09-19T00:05:41;17.10;99.00
22769;DHT22;13001;51.968;5.918;2023-09-19T00:08:11;17.00;99.10
22769;DHT22;13001;51.968;5.918;2023-09-19T00:10:42;17.00;99.30
22769;DHT22;13001;51.968;5.918;2023-09-19T00:13:10;16.90;99.60
22769;DHT22;13001;51.968;5.918;2023-09-19T00:15:43;16.90;99.90
22769;DHT22;13001;51.968;5.918;2023-09-19T00:18:12;16.90;99.90
22769;DHT22;13001;51.968;5.918;2023-09-19T00:20:42;16.90;99.90
22769;DHT22;13001;51.968;5.918;2023-09-19T00:23:09;16.90;99.90
22769;DHT22;13001;51.968;5.918;2023-09-19T00:25:37;16.90;99.90
22769;DHT22;13001;51.968;5.918;2023-09-19T00:28:05;17.00;99.90
22769;DHT22;13001;51.968;5.918;2023-09-19T00:30:37;17.10;99.90
22769;DHT22;13001;51.968;5.918;2023-09-19T00:33:06;17.10;99.90
22769;DHT22;13001;51.968;5.918;2023-09-19T00:35:34;17.20;99.90
22769;DHT22;13001;51.968;5.918;2023-09-19T00:38:03;17.20;99.90
22769;DHT22;13001;51.968;5.918;2023-09-19T00:40:32;17.20;99.90
22769;DHT22;13001;51.968;5.918;2023-09-19T00:43:00;17.20;99.90
22769;DHT22;13001;51.968;5.918;2023-09-19T00:45:28;17.20;99.90
22769;DHT22;13001;51.968;5.918;2023-09-19T00:47:57;17.10;99.90
22769;DHT22;13001;51.968;5.918;2023-09-19T00:50:28;17.10;99.90
22769;DHT22;13001;51.968;5.918;2023-09-19T00:52:55;17.20;99.90
22769;DHT22;13001;51.968;5.918;2023-09-19T00:55:24;17.20;99.90
22769;DHT22;13001;51.968;5.918;2023-09-19T00:57:52;17.20;99.90
22769;DHT22;13001;51.968;5.918;2023-09-19T01:00:20;17.10;99.90
22769;DHT22;13001;51.968;5.918;2023-09-19T01:02:49;17.10;99.90
22769;DHT22;13001;51.968;5.918;2023-09-19T01:05:17;17.00;99.90
22769;DHT22;13001;51.968;5.918;2023-09-19T01:07:45;17.00;99.90
22769;DHT22;13001;51.968;5.918;2023-09-19T01:10:17;16.90;99.90
22769;DHT22;13001;51.968;5.918;2023-09-19T01:13:15;16.90;99.90
22769;DHT22;13001;51.968;5.918;2023-09-19T01:15:51;16.80;99.90
22769;DHT22;13001;51.968;5.918;2023-09-19T01:18:38;16.80;99.90
22769;DHT22;13001;51.968;5.918;2023-09-19T01:21:12;16.70;99.90
22769;DHT22;13001;51.968;5.918;2023-09-19T01:27:08;16.70;99.90
22769;DHT22;13001;51.968;5.918;2023-09-19T01:29:39;16.70;99.90
22769;DHT22;13001;51.968;5.918;2023-09-19T01:32:09;16.60;99.90
22769;DHT22;13001;51.968;5.918;2023-09-19T01:37:16;16.60;99.90
22769;DHT22;13001;51.968;5.918;2023-09-19T01:39:47;16.70;99.90
22769;DHT22;13001;51.968;5.918;2023-09-19T01:42:31;16.60;99.90
22769;DHT22;13001;51.968;5.918;2023-09-19T01:45:03;16.60;99.90
22769;DHT22;13001;51.968;5.918;2023-09-19T01:47:33;16.70;99.90
22769;DHT22;13001;51.968;5.918;2023-09-19T01:50:32;16.70;99.90
22769;DHT22;13001;51.968;5.918;2023-09-19T01:53:28;16.70;99.90
22769;DHT22;13001;51.968;5.918;2023-09-19T01:55:37;16.80;99.90
22769;DHT22;13001;51.968;5.918;2023-09-19T01:58:10;16.80;99.90
22769;DHT22;13001;51.968;5.918;2023-09-19T02:00:39;16.80;99.90
22769;DHT22;13001;51.968;5.918;2023-09-19T02:03:08;16.90;99.90
22769;DHT22;13001;51.968;5.918;2023-09-19T02:05:36;16.90;99.90
22769;DHT22;13001;51.968;5.918;2023-09-19T02:08:03;16.90;99.90
22769;DHT22;13001;51.968;5.918;2023-09-19T02:10:31;16.90;99.90
22769;DHT22;13001;51.968;5.918;2023-09-19T02:12:58;16.90;99.90
22769;DHT22;13001;51.968;5.918;2023-09-19T02:15:26;16.90;99.90
22769;DHT22;13001;51.968;5.918;2023-09-19T02:17:54;16.80;99.90
22769;DHT22;13001;51.968;5.918;2023-09-19T02:20:23;16.70;99.90
22769;DHT22;13001;51.968;5.918;2023-09-19T02:22:51;16.60;99.90
22769;DHT22;13001;51.968;5.918;2023-09-19T02:25:19;16.50;99.90
22769;DHT22;13001;51.968;5.918;2023-09-19T02:27:46;16.50;99.90
22769;DHT22;13001;51.968;5.918;2023-09-19T02:30:14;16.40;99.90
22769;DHT22;13001;51.968;5.918;2023-09-19T02:32:42;16.30;99.90
22769;DHT22;13001;51.968;5.918;2023-09-19T02:35:10;16.20;99.90
22769;DHT22;13001;51.968;5.918;2023-09-19T02:37:37;16.20;99.90
22769;DHT22;13001;51.968;5.918;2023-09-19T02:40:05;16.10;99.90
22769;DHT22;13001;51.968;5.918;2023-09-19T02:42:37;16.10;99.90
22769;DHT22;13001;51.968;5.918;2023-09-19T02:45:05;16.00;99.90
22769;DHT22;13001;51.968;5.918;2023-09-19T02:47:33;16.00;99.90
22769;DHT22;13001;51.968;5.918;2023-09-19T02:50:01;16.00;99.90
22769;DHT22;13001;51.968;5.918;2023-09-19T02:52:29;15.90;99.90
22769;DHT22;13001;51.968;5.918;2023-09-19T02:54:56;15.90;99.90
22769;DHT22;13001;51.968;5.918;2023-09-19T02:57:24;15.80;99.90
22769;DHT22;13001;51.968;5.918;2023-09-19T02:59:51;15.80;99.90
22769;DHT22;13001;51.968;5.918;2023-09-19T03:02:19;15.80;99.90
22769;DHT22;13001;51.968;5.918;2023-09-19T03:04:46;15.70;99.90
22769;DHT22;13001;51.968;5.918;2023-09-19T03:07:15;15.70;99.90
22769;DHT22;13001;51.968;5.918;2023-09-19T03:09:48;15.70;99.90
22769;DHT22;13001;51.968;5.918;2023-09-19T03:12:19;15.60;99.90
22769;DHT22;13001;51.968;5.918;2023-09-19T03:14:47;15.60;99.90
22769;DHT22;13001;51.968;5.918;2023-09-19T03:17:17;15.60;99.90
22769;DHT22;13001;51.968;5.918;2023-09-19T03:19:46;15.50;99.90
22769;DHT22;13001;51.968;5.918;2023-09-19T03:22:14;15.50;99.90
22769;DHT22;13001;51.968;5.918;2023-09-19T03:24:42;15.50;99.90
22769;DHT22;13001;51.968;5.918;2023-09-19T03:27:11;15.40;99.90
22769;DHT22;13001;51.968;5.918;2023-09-19T03:29:40;15.40;99.90
22769;DHT22;13001;51.968;5.918;2023-09-19T03:32:07;15.40;99.90
22769;DHT22;13001;51.968;5.918;2023-09-19T03:34:37;15.30;99.90
22769;DHT22;13001;51.968;5.918;2023-09-19T03:37:07;15.30;99.90
22769;DHT22;13001;51.968;5.918;2023-09-19T03:39:35;15.30;99.90
22769;DHT22;13001;51.968;5.918;2023-09-19T03:42:03;15.20;99.90
22769;DHT22;13001;51.968;5.918;2023-09-19T03:44:30;15.20;99.90
22769;DHT22;13001;51.968;5.918;2023-09-19T03:46:58;15.20;99.90
22769;DHT22;13001;51.968;5.918;2023-09-19T03:49:25;15.20;99.90
22769;DHT22;13001;51.968;5.918;2023-09-19T03:51:53;15.20;99.80
22769;DHT22;13001;51.968;5.918;2023-09-19T03:54:20;15.10;99.80
22769;DHT22;13001;51.968;5.918;2023-09-19T03:56:48;15.10;99.60
22769;DHT22;13001;51.968;5.918;2023-09-19T03:59:16;15.10;99.50
22769;DHT22;13001;51.968;5.918;2023-09-19T04:01:45;15.10;99.40
22769;DHT22;13001;51.968;5.918;2023-09-19T04:04:13;15.10;99.20
22769;DHT22;13001;51.968;5.918;2023-09-19T04:06:40;15.10;99.10
22769;DHT22;13001;51.968;5.918;2023-09-19T04:09:08;15.10;99.00
22769;DHT22;13001;51.968;5.918;2023-09-19T04:11:36;15.10;98.90
22769;DHT22;13001;51.968;5.918;2023-09-19T04:14:04;15.10;98.80
22769;DHT22;13001;51.968;5.918;2023-09-19T04:16:31;15.10;98.60
22769;DHT22;13001;51.968;5.918;2023-09-19T04:18:58;15.10;98.60
22769;DHT22;13001;51.968;5.918;2023-09-19T04:21:26;15.10;98.50
22769;DHT22;13001;51.968;5.918;2023-09-19T04:23:55;15.10;98.40
22769;DHT22;13001;51.968;5.918;2023-09-19T04:26:22;15.10;98.30
22769;DHT22;13001;51.968;5.918;2023-09-19T04:28:50;15.10;98.50
22769;DHT22;13001;51.968;5.918;2023-09-19T04:31:18;15.10;98.20
22769;DHT22;13001;51.968;5.918;2023-09-19T04:33:46;15.10;98.10
22769;DHT22;13001;51.968;5.918;2023-09-19T04:36:14;15.10;98.00
22769;DHT22;13001;51.968;5.918;2023-09-19T04:38:43;15.10;98.00
22769;DHT22;13001;51.968;5.918;2023-09-19T04:41:10;15.10;97.90
22769;DHT22;13001;51.968;5.918;2023-09-19T04:43:38;15.20;97.90
22769;DHT22;13001;51.968;5.918;2023-09-19T04:46:05;15.20;97.70
22769;DHT22;13001;51.968;5.918;2023-09-19T04:48:34;15.30;97.60
22769;DHT22;13001;51.968;5.918;2023-09-19T04:51:02;15.30;97.40
22769;DHT22;13001;51.968;5.918;2023-09-19T04:53:29;15.30;97.30
22769;DHT22;13001;51.968;5.918;2023-09-19T04:55:57;15.30;97.20
22769;DHT22;13001;51.968;5.918;2023-09-19T04:58:26;15.20;97.10
22769;DHT22;13001;51.968;5.918;2023-09-19T05:00:53;15.30;97.20
22769;DHT22;13001;51.968;5.918;2023-09-19T05:03:21;15.20;97.10
22769;DHT22;13001;51.968;5.918;2023-09-19T05:05:49;15.20;97.10
22769;DHT22;13001;51.968;5.918;2023-09-19T05:08:16;15.20;97.10
22769;DHT22;13001;51.968;5.918;2023-09-19T05:10:45;15.20;97.10
22769;DHT22;13001;51.968;5.918;2023-09-19T05:13:12;15.20;97.20
22769;DHT22;13001;51.968;5.918;2023-09-19T05:15:40;15.20;97.30
22769;DHT22;13001;51.968;5.918;2023-09-19T05:18:07;15.20;97.20
22769;DHT22;13001;51.968;5.918;2023-09-19T05:20:35;15.30;97.30
22769;DHT22;13001;51.968;5.918;2023-09-19T05:23:05;15.30;97.30
22769;DHT22;13001;51.968;5.918;2023-09-19T05:25:39;15.30;97.20
22769;DHT22;13001;51.968;5.918;2023-09-19T05:28:10;15.30;97.20
22769;DHT22;13001;51.968;5.918;2023-09-19T05:30:41;15.40;97.20
22769;DHT22;13001;51.968;5.918;2023-09-19T05:33:11;15.50;97.10
22769;DHT22;13001;51.968;5.918;2023-09-19T05:35:40;15.50;97.00
22769;DHT22;13001;51.968;5.918;2023-09-19T05:38:08;15.60;97.00
22769;DHT22;13001;51.968;5.918;2023-09-19T05:40:36;15.70;96.80
22769;DHT22;13001;51.968;5.918;2023-09-19T05:43:05;15.80;96.60
22769;DHT22;13001;51.968;5.918;2023-09-19T05:45:33;16.00;96.50
22769;DHT22;13001;51.968;5.918;2023-09-19T05:48:11;16.10;96.30
22769;DHT22;13001;51.968;5.918;2023-09-19T05:50:41;16.20;96.00
22769;DHT22;13001;51.968;5.918;2023-09-19T05:53:09;16.30;95.80
22769;DHT22;13001;51.968;5.918;2023-09-19T05:55:38;16.30;95.50
22769;DHT22;13001;51.968;5.918;2023-09-19T05:58:06;16.30;95.80
22769;DHT22;13001;51.968;5.918;2023-09-19T06:00:35;16.30;95.50
22769;DHT22;13001;51.968;5.918;2023-09-19T06:03:03;16.30;95.60
22769;DHT22;13001;51.968;5.918;2023-09-19T06:05:30;16.30;95.70
22769;DHT22;13001;51.968;5.918;2023-09-19T06:07:58;16.30;95.70
22769;DHT22;13001;51.968;5.918;2023-09-19T06:10:30;16.40;95.70
22769;DHT22;13001;51.968;5.918;2023-09-19T06:12:58;16.40;95.60
22769;DHT22;13001;51.968;5.918;2023-09-19T06:15:26;16.50;95.60
22769;DHT22;13001;51.968;5.918;2023-09-19T06:17:55;16.60;95.60
22769;DHT22;13001;51.968;5.918;2023-09-19T06:20:24;16.70;95.50
22769;DHT22;13001;51.968;5.918;2023-09-19T06:22:53;16.90;95.20
22769;DHT22;13001;51.968;5.918;2023-09-19T06:25:21;17.00;94.90
22769;DHT22;13001;51.968;5.918;2023-09-19T06:27:51;17.20;94.70
22769;DHT22;13001;51.968;5.918;2023-09-19T06:30:21;17.50;94.40
22769;DHT22;13001;51.968;5.918;2023-09-19T06:32:55;17.80;94.00
22769;DHT22;13001;51.968;5.918;2023-09-19T06:35:19;18.10;93.40
22769;DHT22;13001;51.968;5.918;2023-09-19T06:37:46;18.30;93.10
22769;DHT22;13001;51.968;5.918;2023-09-19T06:40:15;18.70;93.00
22769;DHT22;13001;51.968;5.918;2023-09-19T06:42:49;19.10;91.90
22769;DHT22;13001;51.968;5.918;2023-09-19T06:45:16;19.40;91.30
22769;DHT22;13001;51.968;5.918;2023-09-19T06:47:49;19.80;90.60
22769;DHT22;13001;51.968;5.918;2023-09-19T06:50:21;19.90;89.80
22769;DHT22;13001;51.968;5.918;2023-09-19T06:52:51;20.10;89.10
22769;DHT22;13001;51.968;5.918;2023-09-19T06:55:21;20.20;88.70
22769;DHT22;13001;51.968;5.918;2023-09-19T06:57:50;20.40;87.90
22769;DHT22;13001;51.968;5.918;2023-09-19T07:00:19;20.60;86.50
22769;DHT22;13001;51.968;5.918;2023-09-19T07:03:01;20.70;86.20
22769;DHT22;13001;51.968;5.918;2023-09-19T07:05:27;21.10;85.40
22769;DHT22;13001;51.968;5.918;2023-09-19T07:07:55;21.30;83.90
22769;DHT22;13001;51.968;5.918;2023-09-19T07:10:25;21.60;83.20
22769;DHT22;13001;51.968;5.918;2023-09-19T07:13:00;21.80;81.90
22769;DHT22;13001;51.968;5.918;2023-09-19T07:15:25;21.80;81.20
22769;DHT22;13001;51.968;5.918;2023-09-19T07:17:54;21.90;81.00
22769;DHT22;13001;51.968;5.918;2023-09-19T07:20:24;22.00;80.60
22769;DHT22;13001;51.968;5.918;2023-09-19T07:22:56;22.30;79.80
22769;DHT22;13001;51.968;5.918;2023-09-19T07:25:26;22.50;78.70
22769;DHT22;13001;51.968;5.918;2023-09-19T07:27:58;22.80;78.10
22769;DHT22;13001;51.968;5.918;2023-09-19T07:30:27;23.30;77.20
22769;DHT22;13001;51.968;5.918;2023-09-19T07:32:54;23.90;75.70
22769;DHT22;13001;51.968;5.918;2023-09-19T07:35:22;24.50;74.50
22769;DHT22;13001;51.968;5.918;2023-09-19T07:37:50;25.10;72.70
22769;DHT22;13001;51.968;5.918;2023-09-19T07:40:18;25.60;71.40
22769;DHT22;13001;51.968;5.918;2023-09-19T07:42:47;26.10;70.40
22769;DHT22;13001;51.968;5.918;2023-09-19T07:45:14;26.80;69.00
22769;DHT22;13001;51.968;5.918;2023-09-19T07:47:47;27.30;67.20
22769;DHT22;13001;51.968;5.918;2023-09-19T07:50:17;27.50;66.10
22769;DHT22;13001;51.968;5.918;2023-09-19T07:52:48;27.80;65.00
22769;DHT22;13001;51.968;5.918;2023-09-19T07:55:17;27.70;64.40
22769;DHT22;13001;51.968;5.918;2023-09-19T07:57:47;27.60;64.30
22769;DHT22;13001;51.968;5.918;2023-09-19T08:00:16;27.70;64.10
22769;DHT22;13001;51.968;5.918;2023-09-19T08:02:43;27.90;63.80
22769;DHT22;13001;51.968;5.918;2023-09-19T08:05:10;28.50;63.00
22769;DHT22;13001;51.968;5.918;2023-09-19T08:07:40;29.10;61.60
22769;DHT22;13001;51.968;5.918;2023-09-19T08:10:08;29.90;60.20
22769;DHT22;13001;51.968;5.918;2023-09-19T08:12:41;30.50;58.20
22769;DHT22;13001;51.968;5.918;2023-09-19T08:15:19;30.50;57.70
22769;DHT22;13001;51.968;5.918;2023-09-19T08:17:48;30.80;57.20
22769;DHT22;13001;51.968;5.918;2023-09-19T08:20:16;31.30;56.60
22769;DHT22;13001;51.968;5.918;2023-09-19T08:22:43;31.80;55.50
22769;DHT22;13001;51.968;5.918;2023-09-19T08:25:12;31.60;55.10
22769;DHT22;13001;51.968;5.918;2023-09-19T08:27:39;31.50;55.50
22769;DHT22;13001;51.968;5.918;2023-09-19T08:30:06;31.80;55.20
22769;DHT22;13001;51.968;5.918;2023-09-19T08:32:33;32.10;55.00
22769;DHT22;13001;51.968;5.918;2023-09-19T08:35:00;32.30;54.50
22769;DHT22;13001;51.968;5.918;2023-09-19T08:37:27;32.40;53.90
22769;DHT22;13001;51.968;5.918;2023-09-19T08:39:54;32.20;53.80
22769;DHT22;13001;51.968;5.918;2023-09-19T08:42:21;32.10;54.00
22769;DHT22;13001;51.968;5.918;2023-09-19T08:44:49;31.90;53.60
22769;DHT22;13001;51.968;5.918;2023-09-19T08:47:18;31.80;53.80
22769;DHT22;13001;51.968;5.918;2023-09-19T08:49:53;32.00;53.80
22769;DHT22;13001;51.968;5.918;2023-09-19T08:52:20;32.10;53.40
22769;DHT22;13001;51.968;5.918;2023-09-19T08:54:51;32.30;53.60
22769;DHT22;13001;51.968;5.918;2023-09-19T08:57:18;32.30;53.20
22769;DHT22;13001;51.968;5.918;2023-09-19T08:59:50;32.20;53.40
22769;DHT22;13001;51.968;5.918;2023-09-19T09:02:15;32.20;53.50
22769;DHT22;13001;51.968;5.918;2023-09-19T09:04:45;31.80;53.40
22769;DHT22;13001;51.968;5.918;2023-09-19T09:07:13;31.40;54.00
22769;DHT22;13001;51.968;5.918;2023-09-19T09:09:40;31.20;54.50
22769;DHT22;13001;51.968;5.918;2023-09-19T09:12:11;31.00;54.70
22769;DHT22;13001;51.968;5.918;2023-09-19T09:14:39;31.20;54.50
22769;DHT22;13001;51.968;5.918;2023-09-19T09:17:07;31.20;54.20
22769;DHT22;13001;51.968;5.918;2023-09-19T09:19:34;31.50;54.10
22769;DHT22;13001;51.968;5.918;2023-09-19T09:22:08;31.80;53.70
22769;DHT22;13001;51.968;5.918;2023-09-19T09:24:35;31.90;53.60
22769;DHT22;13001;51.968;5.918;2023-09-19T09:27:04;32.00;53.80
22769;DHT22;13001;51.968;5.918;2023-09-19T09:29:43;31.90;53.80
22769;DHT22;13001;51.968;5.918;2023-09-19T09:32:15;31.90;53.90
22769;DHT22;13001;51.968;5.918;2023-09-19T09:34:33;31.70;54.10
22769;DHT22;13001;51.968;5.918;2023-09-19T09:37:00;31.30;54.10
22769;DHT22;13001;51.968;5.918;2023-09-19T09:39:30;30.70;54.50
22769;DHT22;13001;51.968;5.918;2023-09-19T09:41:58;30.10;55.50
22769;DHT22;13001;51.968;5.918;2023-09-19T09:44:25;29.70;55.80
22769;DHT22;13001;51.968;5.918;2023-09-19T09:46:53;29.00;56.70
22769;DHT22;13001;51.968;5.918;2023-09-19T09:49:27;28.40;57.80
22769;DHT22;13001;51.968;5.918;2023-09-19T09:52:03;28.10;58.60
22769;DHT22;13001;51.968;5.918;2023-09-19T09:54:30;27.90;58.90
22769;DHT22;13001;51.968;5.918;2023-09-19T09:57:01;27.90;58.80
22769;DHT22;13001;51.968;5.918;2023-09-19T09:59:46;27.80;59.50
22769;DHT22;13001;51.968;5.918;2023-09-19T10:02:14;27.40;59.00
22769;DHT22;13001;51.968;5.918;2023-09-19T10:04:42;27.20;59.70
22769;DHT22;13001;51.968;5.918;2023-09-19T10:07:23;27.10;60.00
22769;DHT22;13001;51.968;5.918;2023-09-19T10:09:46;26.90;60.60
22769;DHT22;13001;51.968;5.918;2023-09-19T10:12:17;27.20;60.80
22769;DHT22;13001;51.968;5.918;2023-09-19T10:14:46;27.30;60.00
22769;DHT22;13001;51.968;5.918;2023-09-19T10:17:13;27.20;60.00
22769;DHT22;13001;51.968;5.918;2023-09-19T10:22:12;26.70;60.60
22769;DHT22;13001;51.968;5.918;2023-09-19T10:24:45;26.40;61.90
22769;DHT22;13001;51.968;5.918;2023-09-19T10:27:12;26.20;62.20
22769;DHT22;13001;51.968;5.918;2023-09-19T10:29:41;26.00;62.80
22769;DHT22;13001;51.968;5.918;2023-09-19T10:32:09;25.90;63.20
22769;DHT22;13001;51.968;5.918;2023-09-19T10:34:36;25.90;63.40
22769;DHT22;13001;51.968;5.918;2023-09-19T10:37:03;25.90;63.20
22769;DHT22;13001;51.968;5.918;2023-09-19T10:39:32;25.80;63.30
22769;DHT22;13001;51.968;5.918;2023-09-19T10:42:01;25.90;63.40
22769;DHT22;13001;51.968;5.918;2023-09-19T10:44:28;25.90;62.50
22769;DHT22;13001;51.968;5.918;2023-09-19T10:46:57;26.20;62.70
22769;DHT22;13001;51.968;5.918;2023-09-19T10:49:24;26.40;61.70
22769;DHT22;13001;51.968;5.918;2023-09-19T10:51:54;26.30;61.50
22769;DHT22;13001;51.968;5.918;2023-09-19T10:54:24;26.20;61.70
22769;DHT22;13001;51.968;5.918;2023-09-19T10:56:52;26.00;61.50
22769;DHT22;13001;51.968;5.918;2023-09-19T10:59:21;25.50;62.10
22769;DHT22;13001;51.968;5.918;2023-09-19T11:01:51;25.30;63.30
22769;DHT22;13001;51.968;5.918;2023-09-19T11:04:29;25.30;63.20
22769;DHT22;13001;51.968;5.918;2023-09-19T11:07:10;25.00;62.90
22769;DHT22;13001;51.968;5.918;2023-09-19T11:09:55;24.70;63.20
22769;DHT22;13001;51.968;5.918;2023-09-19T11:15:03;24.20;65.10
22769;DHT22;13001;51.968;5.918;2023-09-19T11:17:40;24.10;65.90
22769;DHT22;13001;51.968;5.918;2023-09-19T11:20:17;24.00;65.70
22769;DHT22;13001;51.968;5.918;2023-09-19T11:30:39;24.60;66.60
22769;DHT22;13001;51.968;5.918;2023-09-19T11:33:25;25.10;65.00
22769;DHT22;13001;51.968;5.918;2023-09-19T11:36:11;25.30;63.10
22769;DHT22;13001;51.968;5.918;2023-09-19T11:46:34;24.70;63.60
22769;DHT22;13001;51.968;5.918;2023-09-19T11:49:08;24.60;64.40
22769;DHT22;13001;51.968;5.918;2023-09-19T11:51:42;24.70;64.10
22769;DHT22;13001;51.968;5.918;2023-09-19T11:54:12;24.80;63.10
22769;DHT22;13001;51.968;5.918;2023-09-19T11:56:45;24.70;62.80
22769;DHT22;13001;51.968;5.918;2023-09-19T11:59:22;24.60;63.10
22769;DHT22;13001;51.968;5.918;2023-09-19T12:01:56;24.60;64.20
22769;DHT22;13001;51.968;5.918;2023-09-19T12:04:44;24.60;63.90
22769;DHT22;13001;51.968;5.918;2023-09-19T12:07:15;24.70;63.90
22769;DHT22;13001;51.968;5.918;2023-09-19T12:09:44;24.80;63.20
22769;DHT22;13001;51.968;5.918;2023-09-19T12:12:24;24.90;62.60
22769;DHT22;13001;51.968;5.918;2023-09-19T12:14:54;24.90;62.40
22769;DHT22;13001;51.968;5.918;2023-09-19T12:17:46;25.00;62.70
22769;DHT22;13001;51.968;5.918;2023-09-19T12:19:55;25.00;62.50
22769;DHT22;13001;51.968;5.918;2023-09-19T12:22:23;24.90;62.50
22769;DHT22;13001;51.968;5.918;2023-09-19T12:24:51;24.90;62.60
22769;DHT22;13001;51.968;5.918;2023-09-19T12:27:21;24.90;62.70
22769;DHT22;13001;51.968;5.918;2023-09-19T12:29:49;24.90;62.40
22769;DHT22;13001;51.968;5.918;2023-09-19T12:32:19;25.00;62.30
22769;DHT22;13001;51.968;5.918;2023-09-19T12:34:51;25.10;62.00
22769;DHT22;13001;51.968;5.918;2023-09-19T12:37:22;25.30;61.30
22769;DHT22;13001;51.968;5.918;2023-09-19T12:39:52;25.20;60.90
22769;DHT22;13001;51.968;5.918;2023-09-19T12:42:23;25.00;61.00
22769;DHT22;13001;51.968;5.918;2023-09-19T12:44:54;24.70;61.20
22769;DHT22;13001;51.968;5.918;2023-09-19T12:47:26;24.50;62.10
22769;DHT22;13001;51.968;5.918;2023-09-19T12:50:13;24.20;62.80
22769;DHT22;13001;51.968;5.918;2023-09-19T12:52:47;23.90;63.60
22769;DHT22;13001;51.968;5.918;2023-09-19T12:55:22;23.60;64.20
22769;DHT22;13001;51.968;5.918;2023-09-19T12:58:09;23.40;65.20
22769;DHT22;13001;51.968;5.918;2023-09-19T13:00:39;23.20;66.00
22769;DHT22;13001;51.968;5.918;2023-09-19T13:03:17;23.10;66.60
22769;DHT22;13001;51.968;5.918;2023-09-19T13:05:56;23.00;66.60
22769;DHT22;13001;51.968;5.918;2023-09-19T13:08:31;22.90;67.50
22769;DHT22;13001;51.968;5.918;2023-09-19T13:13:34;22.50;68.60
22769;DHT22;13001;51.968;5.918;2023-09-19T13:16:03;22.50;68.90
22769;DHT22;13001;51.968;5.918;2023-09-19T13:18:48;22.50;69.00
22769;DHT22;13001;51.968;5.918;2023-09-19T13:21:31;22.50;69.10
22769;DHT22;13001;51.968;5.918;2023-09-19T13:24:23;22.60;69.20
22769;DHT22;13001;51.968;5.918;2023-09-19T13:26:52;22.70;69.00
22769;DHT22;13001;51.968;5.918;2023-09-19T13:29:20;22.70;69.00
22769;DHT22;13001;51.968;5.918;2023-09-19T13:31:54;22.70;69.10
22769;DHT22;13001;51.968;5.918;2023-09-19T13:34:19;22.70;69.30
22769;DHT22;13001;51.968;5.918;2023-09-19T13:36:47;22.70;69.50
22769;DHT22;13001;51.968;5.918;2023-09-19T13:39:16;22.60;69.70
22769;DHT22;13001;51.968;5.918;2023-09-19T13:41:50;22.50;70.00
22769;DHT22;13001;51.968;5.918;2023-09-19T13:44:17;22.30;70.20
22769;DHT22;13001;51.968;5.918;2023-09-19T13:46:46;22.20;70.60
22769;DHT22;13001;51.968;5.918;2023-09-19T13:49:13;22.00;71.00
22769;DHT22;13001;51.968;5.918;2023-09-19T13:51:41;21.90;71.60
22769;DHT22;13001;51.968;5.918;2023-09-19T13:54:10;21.80;71.80
22769;DHT22;13001;51.968;5.918;2023-09-19T13:56:38;21.70;72.10
22769;DHT22;13001;51.968;5.918;2023-09-19T13:59:06;21.60;72.40
22769;DHT22;13001;51.968;5.918;2023-09-19T14:01:33;21.50;72.90
22769;DHT22;13001;51.968;5.918;2023-09-19T14:04:01;21.50;73.10
22769;DHT22;13001;51.968;5.918;2023-09-19T14:06:29;21.50;73.20
22769;DHT22;13001;51.968;5.918;2023-09-19T14:08:56;21.70;73.20
22769;DHT22;13001;51.968;5.918;2023-09-19T14:11:24;21.90;73.00
22769;DHT22;13001;51.968;5.918;2023-09-19T14:13:52;22.10;72.70
22769;DHT22;13001;51.968;5.918;2023-09-19T14:16:21;22.30;72.20
22769;DHT22;13001;51.968;5.918;2023-09-19T14:18:51;22.40;71.90
22769;DHT22;13001;51.968;5.918;2023-09-19T14:21:18;22.50;71.70
22769;DHT22;13001;51.968;5.918;2023-09-19T14:23:46;22.60;71.40
22769;DHT22;13001;51.968;5.918;2023-09-19T14:26:15;22.60;71.20
22769;DHT22;13001;51.968;5.918;2023-09-19T14:28:45;22.60;71.20
22769;DHT22;13001;51.968;5.918;2023-09-19T14:31:12;22.60;71.10
22769;DHT22;13001;51.968;5.918;2023-09-19T14:33:41;22.60;71.20
22769;DHT22;13001;51.968;5.918;2023-09-19T14:36:10;22.60;71.20
22769;DHT22;13001;51.968;5.918;2023-09-19T14:38:38;22.50;71.30
22769;DHT22;13001;51.968;5.918;2023-09-19T14:41:06;22.30;71.40
22769;DHT22;13001;51.968;5.918;2023-09-19T14:43:34;22.20;71.90
22769;DHT22;13001;51.968;5.918;2023-09-19T14:46:03;22.00;72.50
22769;DHT22;13001;51.968;5.918;2023-09-19T14:48:31;22.00;72.80
22769;DHT22;13001;51.968;5.918;2023-09-19T14:51:03;21.90;72.90
22769;DHT22;13001;51.968;5.918;2023-09-19T14:53:32;21.90;73.00
22769;DHT22;13001;51.968;5.918;2023-09-19T14:56:03;21.90;73.00
22769;DHT22;13001;51.968;5.918;2023-09-19T14:58:32;21.90;73.40
22769;DHT22;13001;51.968;5.918;2023-09-19T15:01:13;21.90;73.10
22769;DHT22;13001;51.968;5.918;2023-09-19T15:03:41;21.80;73.70
22769;DHT22;13001;51.968;5.918;2023-09-19T15:06:10;21.80;73.70
22769;DHT22;13001;51.968;5.918;2023-09-19T15:08:42;21.70;73.80
22769;DHT22;13001;51.968;5.918;2023-09-19T15:11:12;21.70;73.90
22769;DHT22;13001;51.968;5.918;2023-09-19T15:13:41;21.50;74.20
22769;DHT22;13001;51.968;5.918;2023-09-19T15:16:10;21.50;74.40
22769;DHT22;13001;51.968;5.918;2023-09-19T15:18:41;21.40;74.80
22769;DHT22;13001;51.968;5.918;2023-09-19T15:21:10;21.20;74.90
22769;DHT22;13001;51.968;5.918;2023-09-19T15:23:40;21.10;75.40
22769;DHT22;13001;51.968;5.918;2023-09-19T15:26:11;21.00;75.80
22769;DHT22;13001;51.968;5.918;2023-09-19T15:28:39;20.90;76.20
22769;DHT22;13001;51.968;5.918;2023-09-19T15:31:11;20.80;76.40
22769;DHT22;13001;51.968;5.918;2023-09-19T15:33:42;20.80;76.70
22769;DHT22;13001;51.968;5.918;2023-09-19T15:36:11;20.70;76.80
22769;DHT22;13001;51.968;5.918;2023-09-19T15:39:01;20.70;77.10
22769;DHT22;13001;51.968;5.918;2023-09-19T15:41:33;20.60;77.20
22769;DHT22;13001;51.968;5.918;2023-09-19T15:44:02;20.60;77.50
22769;DHT22;13001;51.968;5.918;2023-09-19T15:46:32;20.50;77.70
22769;DHT22;13001;51.968;5.918;2023-09-19T15:49:04;20.40;77.90
22769;DHT22;13001;51.968;5.918;2023-09-19T15:51:32;20.40;78.20
22769;DHT22;13001;51.968;5.918;2023-09-19T15:54:00;20.30;78.40
22769;DHT22;13001;51.968;5.918;2023-09-19T15:56:28;20.30;78.60
22769;DHT22;13001;51.968;5.918;2023-09-19T15:58:56;20.20;78.90
22769;DHT22;13001;51.968;5.918;2023-09-19T16:01:24;20.20;79.10
22769;DHT22;13001;51.968;5.918;2023-09-19T16:03:53;20.20;79.30
22769;DHT22;13001;51.968;5.918;2023-09-19T16:06:29;20.20;79.50
22769;DHT22;13001;51.968;5.918;2023-09-19T16:08:58;20.20;79.60
22769;DHT22;13001;51.968;5.918;2023-09-19T16:11:27;20.20;79.60
22769;DHT22;13001;51.968;5.918;2023-09-19T16:13:55;20.20;79.80
22769;DHT22;13001;51.968;5.918;2023-09-19T16:16:25;20.20;79.90